sensor_id;sensor_type;location;lat;lon;timestamp;P1;durP1;ratioP1;P2;durP2;ratioP2
63346;SDS011;49472;49.880;8.650;2022-11-13T00:01:44;30.67;;;27.00;;
63346;SDS011;49472;49.880;8.650;2022-11-13T00:04:09;29.33;;;26.53;;
63346;SDS011;49472;49.880;8.650;2022-11-13T00:06:35;28.23;;;25.57;;
63346;SDS011;49472;49.880;8.650;2022-11-13T00:09:00;30.63;;;27.53;;
63346;SDS011;49472;49.880;8.650;2022-11-13T00:11:25;29.47;;;25.63;;
63346;SDS011;49472;49.880;8.650;2022-11-13T00:13:51;29.97;;;26.87;;
63346;SDS011;49472;49.880;8.650;2022-11-13T00:16:17;28.97;;;25.90;;
63346;SDS011;49472;49.880;8.650;2022-11-13T00:18:44;27.80;;;25.30;;
63346;SDS011;49472;49.880;8.650;2022-11-13T00:21:15;28.23;;;25.40;;
63346;SDS011;49472;49.880;8.650;2022-11-13T00:23:45;28.07;;;25.40;;
63346;SDS011;49472;49.880;8.650;2022-11-13T00:28:41;29.20;;;26.23;;
63346;SDS011;49472;49.880;8.650;2022-11-13T00:31:06;27.60;;;24.40;;
63346;SDS011;49472;49.880;8.650;2022-11-13T00:33:32;27.87;;;25.03;;
63346;SDS011;49472;49.880;8.650;2022-11-13T00:36:05;26.47;;;23.87;;
63346;SDS011;49472;49.880;8.650;2022-11-13T00:38:32;32.00;;;24.90;;
63346;SDS011;49472;49.880;8.650;2022-11-13T00:40:58;27.60;;;25.10;;
63346;SDS011;49472;49.880;8.650;2022-11-13T00:43:23;26.60;;;23.63;;
63346;SDS011;49472;49.880;8.650;2022-11-13T00:45:48;27.27;;;24.50;;
63346;SDS011;49472;49.880;8.650;2022-11-13T00:48:14;26.10;;;23.90;;
63346;SDS011;49472;49.880;8.650;2022-11-13T00:50:39;28.30;;;25.60;;
63346;SDS011;49472;49.880;8.650;2022-11-13T00:53:04;27.87;;;25.37;;
63346;SDS011;49472;49.880;8.650;2022-11-13T00:55:30;26.90;;;24.43;;
63346;SDS011;49472;49.880;8.650;2022-11-13T00:57:55;27.00;;;24.63;;
63346;SDS011;49472;49.880;8.650;2022-11-13T01:00:20;26.87;;;24.37;;
63346;SDS011;49472;49.880;8.650;2022-11-13T01:02:46;33.93;;;24.07;;
63346;SDS011;49472;49.880;8.650;2022-11-13T01:05:11;26.77;;;24.13;;
63346;SDS011;49472;49.880;8.650;2022-11-13T01:07:36;27.50;;;24.70;;
63346;SDS011;49472;49.880;8.650;2022-11-13T01:10:03;25.20;;;22.83;;
63346;SDS011;49472;49.880;8.650;2022-11-13T01:12:29;26.30;;;23.90;;
63346;SDS011;49472;49.880;8.650;2022-11-13T01:14:54;27.17;;;24.40;;
63346;SDS011;49472;49.880;8.650;2022-11-13T01:17:20;26.37;;;23.67;;
63346;SDS011;49472;49.880;8.650;2022-11-13T01:19:45;27.17;;;24.40;;
63346;SDS011;49472;49.880;8.650;2022-11-13T01:22:10;26.07;;;23.37;;
63346;SDS011;49472;49.880;8.650;2022-11-13T01:24:36;27.73;;;25.13;;
63346;SDS011;49472;49.880;8.650;2022-11-13T01:27:01;26.73;;;24.13;;
63346;SDS011;49472;49.880;8.650;2022-11-13T01:29:26;26.70;;;24.10;;
63346;SDS011;49472;49.880;8.650;2022-11-13T01:31:52;26.97;;;24.50;;
63346;SDS011;49472;49.880;8.650;2022-11-13T01:34:17;26.70;;;23.93;;
63346;SDS011;49472;49.880;8.650;2022-11-13T01:36:42;28.70;;;25.57;;
63346;SDS011;49472;49.880;8.650;2022-11-13T01:39:09;26.70;;;24.33;;
63346;SDS011;49472;49.880;8.650;2022-11-13T01:41:35;26.37;;;23.97;;
63346;SDS011;49472;49.880;8.650;2022-11-13T01:44:00;26.27;;;23.80;;
63346;SDS011;49472;49.880;8.650;2022-11-13T01:46:37;26.30;;;23.90;;
63346;SDS011;49472;49.880;8.650;2022-11-13T01:51:42;26.27;;;23.67;;
63346;SDS011;49472;49.880;8.650;2022-11-13T01:54:14;25.93;;;23.63;;
63346;SDS011;49472;49.880;8.650;2022-11-13T01:56:43;26.07;;;23.80;;
63346;SDS011;49472;49.880;8.650;2022-11-13T01:59:10;27.10;;;24.70;;
63346;SDS011;49472;49.880;8.650;2022-11-13T02:01:38;26.67;;;23.97;;
63346;SDS011;49472;49.880;8.650;2022-11-13T02:04:04;25.83;;;23.43;;
63346;SDS011;49472;49.880;8.650;2022-11-13T02:06:31;26.10;;;23.43;;
63346;SDS011;49472;49.880;8.650;2022-11-13T02:09:00;34.33;;;22.77;;
63346;SDS011;49472;49.880;8.650;2022-11-13T02:11:26;24.83;;;22.33;;
63346;SDS011;49472;49.880;8.650;2022-11-13T02:13:51;25.53;;;23.20;;
63346;SDS011;49472;49.880;8.650;2022-11-13T02:16:17;26.30;;;23.73;;
63346;SDS011;49472;49.880;8.650;2022-11-13T02:18:43;25.83;;;23.17;;
63346;SDS011;49472;49.880;8.650;2022-11-13T02:21:13;26.90;;;24.33;;
63346;SDS011;49472;49.880;8.650;2022-11-13T02:23:56;25.33;;;23.10;;
63346;SDS011;49472;49.880;8.650;2022-11-13T02:26:27;25.40;;;23.20;;
63346;SDS011;49472;49.880;8.650;2022-11-13T02:28:54;26.23;;;23.70;;
63346;SDS011;49472;49.880;8.650;2022-11-13T02:31:19;25.03;;;22.70;;
63346;SDS011;49472;49.880;8.650;2022-11-13T02:33:45;26.10;;;23.57;;
63346;SDS011;49472;49.880;8.650;2022-11-13T02:36:10;28.40;;;24.17;;
63346;SDS011;49472;49.880;8.650;2022-11-13T02:38:36;26.17;;;23.87;;
63346;SDS011;49472;49.880;8.650;2022-11-13T02:41:04;26.23;;;23.80;;
63346;SDS011;49472;49.880;8.650;2022-11-13T02:43:29;25.50;;;23.27;;
63346;SDS011;49472;49.880;8.650;2022-11-13T02:45:55;25.87;;;23.67;;
63346;SDS011;49472;49.880;8.650;2022-11-13T02:48:20;26.70;;;24.23;;
63346;SDS011;49472;49.880;8.650;2022-11-13T02:50:45;25.80;;;23.40;;
63346;SDS011;49472;49.880;8.650;2022-11-13T02:53:11;26.60;;;24.20;;
63346;SDS011;49472;49.880;8.650;2022-11-13T02:55:36;31.73;;;23.20;;
63346;SDS011;49472;49.880;8.650;2022-11-13T02:58:02;23.83;;;21.67;;
63346;SDS011;49472;49.880;8.650;2022-11-13T03:00:27;25.30;;;22.80;;
63346;SDS011;49472;49.880;8.650;2022-11-13T03:02:53;24.40;;;22.20;;
63346;SDS011;49472;49.880;8.650;2022-11-13T03:05:19;24.33;;;22.10;;
63346;SDS011;49472;49.880;8.650;2022-11-13T03:07:45;26.13;;;23.63;;
63346;SDS011;49472;49.880;8.650;2022-11-13T03:10:10;25.70;;;23.00;;
63346;SDS011;49472;49.880;8.650;2022-11-13T03:12:36;30.63;;;23.40;;
63346;SDS011;49472;49.880;8.650;2022-11-13T03:15:01;27.60;;;23.03;;
63346;SDS011;49472;49.880;8.650;2022-11-13T03:17:29;25.20;;;22.90;;
63346;SDS011;49472;49.880;8.650;2022-11-13T03:19:55;26.07;;;23.03;;
63346;SDS011;49472;49.880;8.650;2022-11-13T03:22:20;25.07;;;22.77;;
63346;SDS011;49472;49.880;8.650;2022-11-13T03:24:45;26.53;;;23.73;;
63346;SDS011;49472;49.880;8.650;2022-11-13T03:27:10;27.87;;;22.90;;
63346;SDS011;49472;49.880;8.650;2022-11-13T03:29:36;28.93;;;23.73;;
63346;SDS011;49472;49.880;8.650;2022-11-13T03:32:01;23.93;;;21.83;;
63346;SDS011;49472;49.880;8.650;2022-11-13T03:34:27;24.17;;;21.97;;
63346;SDS011;49472;49.880;8.650;2022-11-13T03:36:52;30.80;;;22.37;;
63346;SDS011;49472;49.880;8.650;2022-11-13T03:39:18;26.73;;;22.20;;
63346;SDS011;49472;49.880;8.650;2022-11-13T03:41:43;24.37;;;21.50;;
63346;SDS011;49472;49.880;8.650;2022-11-13T03:44:08;25.33;;;23.03;;
63346;SDS011;49472;49.880;8.650;2022-11-13T03:46:33;33.43;;;22.60;;
63346;SDS011;49472;49.880;8.650;2022-11-13T03:48:59;23.87;;;21.57;;
63346;SDS011;49472;49.880;8.650;2022-11-13T03:51:24;23.47;;;21.47;;
63346;SDS011;49472;49.880;8.650;2022-11-13T03:53:49;23.03;;;21.10;;
63346;SDS011;49472;49.880;8.650;2022-11-13T03:56:15;23.97;;;21.90;;
63346;SDS011;49472;49.880;8.650;2022-11-13T03:58:40;22.97;;;20.97;;
63346;SDS011;49472;49.880;8.650;2022-11-13T04:01:05;23.13;;;21.07;;
63346;SDS011;49472;49.880;8.650;2022-11-13T04:03:30;23.37;;;21.47;;
63346;SDS011;49472;49.880;8.650;2022-11-13T04:05:56;23.50;;;21.50;;
63346;SDS011;49472;49.880;8.650;2022-11-13T04:08:21;21.87;;;20.17;;
63346;SDS011;49472;49.880;8.650;2022-11-13T04:10:46;22.00;;;20.20;;
63346;SDS011;49472;49.880;8.650;2022-11-13T04:13:12;22.17;;;20.47;;
63346;SDS011;49472;49.880;8.650;2022-11-13T04:15:37;22.37;;;20.57;;
63346;SDS011;49472;49.880;8.650;2022-11-13T04:18:02;22.70;;;20.73;;
63346;SDS011;49472;49.880;8.650;2022-11-13T04:20:28;23.57;;;21.47;;
63346;SDS011;49472;49.880;8.650;2022-11-13T04:22:54;22.40;;;20.40;;
63346;SDS011;49472;49.880;8.650;2022-11-13T04:25:21;22.10;;;20.30;;
63346;SDS011;49472;49.880;8.650;2022-11-13T04:27:50;22.37;;;20.63;;
63346;SDS011;49472;49.880;8.650;2022-11-13T04:30:18;22.50;;;20.67;;
63346;SDS011;49472;49.880;8.650;2022-11-13T04:32:44;22.37;;;20.53;;
63346;SDS011;49472;49.880;8.650;2022-11-13T04:35:09;24.73;;;21.97;;
63346;SDS011;49472;49.880;8.650;2022-11-13T04:37:35;21.60;;;19.90;;
63346;SDS011;49472;49.880;8.650;2022-11-13T04:40:01;21.87;;;20.13;;
63346;SDS011;49472;49.880;8.650;2022-11-13T04:42:26;22.87;;;20.87;;
63346;SDS011;49472;49.880;8.650;2022-11-13T04:45:10;22.13;;;20.43;;
63346;SDS011;49472;49.880;8.650;2022-11-13T04:47:37;21.67;;;20.07;;
63346;SDS011;49472;49.880;8.650;2022-11-13T04:50:02;22.17;;;20.27;;
63346;SDS011;49472;49.880;8.650;2022-11-13T04:52:28;21.90;;;19.90;;
63346;SDS011;49472;49.880;8.650;2022-11-13T04:54:54;21.60;;;19.80;;
63346;SDS011;49472;49.880;8.650;2022-11-13T04:57:19;21.90;;;19.87;;
63346;SDS011;49472;49.880;8.650;2022-11-13T04:59:44;23.10;;;21.13;;
63346;SDS011;49472;49.880;8.650;2022-11-13T05:02:10;23.70;;;21.77;;
63346;SDS011;49472;49.880;8.650;2022-11-13T05:04:35;21.20;;;19.50;;
63346;SDS011;49472;49.880;8.650;2022-11-13T05:07:00;21.80;;;19.77;;
63346;SDS011;49472;49.880;8.650;2022-11-13T05:09:26;21.17;;;19.57;;
63346;SDS011;49472;49.880;8.650;2022-11-13T05:11:51;22.13;;;20.13;;
63346;SDS011;49472;49.880;8.650;2022-11-13T05:14:16;22.13;;;20.37;;
63346;SDS011;49472;49.880;8.650;2022-11-13T05:16:42;21.50;;;19.80;;
63346;SDS011;49472;49.880;8.650;2022-11-13T05:19:07;20.87;;;19.27;;
63346;SDS011;49472;49.880;8.650;2022-11-13T05:21:33;22.87;;;21.00;;
63346;SDS011;49472;49.880;8.650;2022-11-13T05:23:59;20.90;;;19.20;;
63346;SDS011;49472;49.880;8.650;2022-11-13T05:26:25;21.13;;;19.43;;
63346;SDS011;49472;49.880;8.650;2022-11-13T05:28:50;21.97;;;19.33;;
63346;SDS011;49472;49.880;8.650;2022-11-13T05:31:16;21.30;;;19.50;;
63346;SDS011;49472;49.880;8.650;2022-11-13T05:33:41;25.60;;;19.60;;
63346;SDS011;49472;49.880;8.650;2022-11-13T05:36:11;21.53;;;19.83;;
63346;SDS011;49472;49.880;8.650;2022-11-13T05:38:38;21.40;;;19.70;;
63346;SDS011;49472;49.880;8.650;2022-11-13T05:41:05;21.00;;;19.40;;
63346;SDS011;49472;49.880;8.650;2022-11-13T05:43:33;21.20;;;19.60;;
63346;SDS011;49472;49.880;8.650;2022-11-13T05:46:00;22.67;;;20.47;;
63346;SDS011;49472;49.880;8.650;2022-11-13T05:48:29;22.20;;;20.40;;
63346;SDS011;49472;49.880;8.650;2022-11-13T05:51:05;22.60;;;20.70;;
63346;SDS011;49472;49.880;8.650;2022-11-13T05:53:32;20.73;;;19.13;;
63346;SDS011;49472;49.880;8.650;2022-11-13T05:55:59;22.10;;;20.30;;
63346;SDS011;49472;49.880;8.650;2022-11-13T05:58:26;22.07;;;20.27;;
63346;SDS011;49472;49.880;8.650;2022-11-13T06:00:52;21.90;;;20.20;;
63346;SDS011;49472;49.880;8.650;2022-11-13T06:03:18;22.37;;;20.47;;
63346;SDS011;49472;49.880;8.650;2022-11-13T06:05:43;21.93;;;20.13;;
63346;SDS011;49472;49.880;8.650;2022-11-13T06:08:09;22.17;;;20.37;;
63346;SDS011;49472;49.880;8.650;2022-11-13T06:10:34;21.93;;;20.00;;
63346;SDS011;49472;49.880;8.650;2022-11-13T06:12:59;22.33;;;20.57;;
63346;SDS011;49472;49.880;8.650;2022-11-13T06:15:25;21.30;;;19.63;;
63346;SDS011;49472;49.880;8.650;2022-11-13T06:17:50;22.50;;;20.70;;
63346;SDS011;49472;49.880;8.650;2022-11-13T06:20:15;22.20;;;20.47;;
63346;SDS011;49472;49.880;8.650;2022-11-13T06:22:41;22.50;;;20.80;;
63346;SDS011;49472;49.880;8.650;2022-11-13T06:25:06;22.50;;;20.60;;
63346;SDS011;49472;49.880;8.650;2022-11-13T06:27:31;22.30;;;20.50;;
63346;SDS011;49472;49.880;8.650;2022-11-13T06:29:57;25.63;;;20.70;;
63346;SDS011;49472;49.880;8.650;2022-11-13T06:32:22;22.60;;;20.90;;
63346;SDS011;49472;49.880;8.650;2022-11-13T06:34:47;23.00;;;21.20;;
63346;SDS011;49472;49.880;8.650;2022-11-13T06:37:12;22.90;;;21.20;;
63346;SDS011;49472;49.880;8.650;2022-11-13T06:39:38;23.10;;;21.20;;
63346;SDS011;49472;49.880;8.650;2022-11-13T06:42:03;22.53;;;20.73;;
63346;SDS011;49472;49.880;8.650;2022-11-13T06:44:28;22.27;;;20.57;;
63346;SDS011;49472;49.880;8.650;2022-11-13T06:46:53;22.90;;;21.00;;
63346;SDS011;49472;49.880;8.650;2022-11-13T06:49:19;23.30;;;21.53;;
63346;SDS011;49472;49.880;8.650;2022-11-13T06:51:44;24.10;;;22.10;;
63346;SDS011;49472;49.880;8.650;2022-11-13T06:54:09;22.67;;;20.77;;
63346;SDS011;49472;49.880;8.650;2022-11-13T06:56:35;22.73;;;20.70;;
63346;SDS011;49472;49.880;8.650;2022-11-13T06:59:00;22.20;;;20.10;;
63346;SDS011;49472;49.880;8.650;2022-11-13T07:01:25;23.47;;;21.67;;
63346;SDS011;49472;49.880;8.650;2022-11-13T07:03:51;23.60;;;21.40;;
63346;SDS011;49472;49.880;8.650;2022-11-13T07:06:18;23.87;;;21.90;;
63346;SDS011;49472;49.880;8.650;2022-11-13T07:08:45;21.90;;;20.20;;
63346;SDS011;49472;49.880;8.650;2022-11-13T07:11:12;23.77;;;21.67;;
63346;SDS011;49472;49.880;8.650;2022-11-13T07:13:39;22.77;;;20.77;;
63346;SDS011;49472;49.880;8.650;2022-11-13T07:16:06;23.77;;;21.80;;
63346;SDS011;49472;49.880;8.650;2022-11-13T07:18:32;21.83;;;20.13;;
63346;SDS011;49472;49.880;8.650;2022-11-13T07:21:01;22.57;;;20.73;;
63346;SDS011;49472;49.880;8.650;2022-11-13T07:23:29;22.73;;;20.73;;
63346;SDS011;49472;49.880;8.650;2022-11-13T07:25:54;22.60;;;20.83;;
63346;SDS011;49472;49.880;8.650;2022-11-13T07:28:20;23.10;;;21.20;;
63346;SDS011;49472;49.880;8.650;2022-11-13T07:30:45;24.00;;;21.97;;
63346;SDS011;49472;49.880;8.650;2022-11-13T07:33:10;23.70;;;21.73;;
63346;SDS011;49472;49.880;8.650;2022-11-13T07:35:36;23.40;;;21.50;;
63346;SDS011;49472;49.880;8.650;2022-11-13T07:38:01;23.90;;;21.97;;
63346;SDS011;49472;49.880;8.650;2022-11-13T07:40:26;22.70;;;20.70;;
63346;SDS011;49472;49.880;8.650;2022-11-13T07:42:55;22.63;;;20.50;;
63346;SDS011;49472;49.880;8.650;2022-11-13T07:45:24;23.70;;;21.80;;
63346;SDS011;49472;49.880;8.650;2022-11-13T07:47:51;23.20;;;21.30;;
63346;SDS011;49472;49.880;8.650;2022-11-13T07:50:21;24.77;;;22.47;;
63346;SDS011;49472;49.880;8.650;2022-11-13T07:52:46;25.23;;;22.73;;
63346;SDS011;49472;49.880;8.650;2022-11-13T07:55:12;23.73;;;21.90;;
63346;SDS011;49472;49.880;8.650;2022-11-13T07:57:37;23.57;;;21.67;;
63346;SDS011;49472;49.880;8.650;2022-11-13T08:00:02;24.07;;;22.17;;
63346;SDS011;49472;49.880;8.650;2022-11-13T08:02:28;23.33;;;21.43;;
63346;SDS011;49472;49.880;8.650;2022-11-13T08:04:53;22.77;;;20.97;;
63346;SDS011;49472;49.880;8.650;2022-11-13T08:07:19;24.00;;;21.80;;
63346;SDS011;49472;49.880;8.650;2022-11-13T08:09:44;22.23;;;20.47;;
63346;SDS011;49472;49.880;8.650;2022-11-13T08:12:09;22.20;;;20.40;;
63346;SDS011;49472;49.880;8.650;2022-11-13T08:14:34;21.00;;;19.50;;
63346;SDS011;49472;49.880;8.650;2022-11-13T08:17:00;22.80;;;20.90;;
63346;SDS011;49472;49.880;8.650;2022-11-13T08:19:25;20.20;;;18.63;;
63346;SDS011;49472;49.880;8.650;2022-11-13T08:21:50;19.80;;;18.30;;
63346;SDS011;49472;49.880;8.650;2022-11-13T08:24:16;20.83;;;19.30;;
63346;SDS011;49472;49.880;8.650;2022-11-13T08:26:41;20.37;;;18.87;;
63346;SDS011;49472;49.880;8.650;2022-11-13T08:29:06;21.07;;;19.47;;
63346;SDS011;49472;49.880;8.650;2022-11-13T08:31:31;20.73;;;19.23;;
63346;SDS011;49472;49.880;8.650;2022-11-13T08:33:58;22.27;;;20.57;;
63346;SDS011;49472;49.880;8.650;2022-11-13T08:36:24;21.67;;;19.87;;
63346;SDS011;49472;49.880;8.650;2022-11-13T08:38:49;21.33;;;19.73;;
63346;SDS011;49472;49.880;8.650;2022-11-13T08:41:14;22.30;;;20.57;;
63346;SDS011;49472;49.880;8.650;2022-11-13T08:43:40;21.33;;;19.53;;
63346;SDS011;49472;49.880;8.650;2022-11-13T08:46:05;21.37;;;19.77;;
63346;SDS011;49472;49.880;8.650;2022-11-13T08:48:31;24.87;;;22.77;;
63346;SDS011;49472;49.880;8.650;2022-11-13T08:50:56;22.93;;;21.20;;
63346;SDS011;49472;49.880;8.650;2022-11-13T08:53:22;22.47;;;20.67;;
63346;SDS011;49472;49.880;8.650;2022-11-13T08:55:48;22.00;;;20.30;;
63346;SDS011;49472;49.880;8.650;2022-11-13T08:58:13;20.93;;;19.23;;
63346;SDS011;49472;49.880;8.650;2022-11-13T09:00:39;21.73;;;20.13;;
63346;SDS011;49472;49.880;8.650;2022-11-13T09:03:04;21.10;;;19.30;;
63346;SDS011;49472;49.880;8.650;2022-11-13T09:05:30;20.73;;;19.23;;
63346;SDS011;49472;49.880;8.650;2022-11-13T09:07:56;21.43;;;19.83;;
63346;SDS011;49472;49.880;8.650;2022-11-13T09:10:23;20.70;;;19.13;;
63346;SDS011;49472;49.880;8.650;2022-11-13T09:12:54;20.70;;;19.20;;
63346;SDS011;49472;49.880;8.650;2022-11-13T09:15:25;20.30;;;18.67;;
63346;SDS011;49472;49.880;8.650;2022-11-13T09:17:50;19.80;;;18.30;;
63346;SDS011;49472;49.880;8.650;2022-11-13T09:20:16;24.30;;;22.10;;
63346;SDS011;49472;49.880;8.650;2022-11-13T09:22:41;21.83;;;20.13;;
63346;SDS011;49472;49.880;8.650;2022-11-13T09:25:07;21.40;;;19.70;;
63346;SDS011;49472;49.880;8.650;2022-11-13T09:27:32;20.13;;;18.53;;
63346;SDS011;49472;49.880;8.650;2022-11-13T09:29:58;21.53;;;19.77;;
63346;SDS011;49472;49.880;8.650;2022-11-13T09:32:23;21.30;;;19.70;;
63346;SDS011;49472;49.880;8.650;2022-11-13T09:34:49;21.43;;;19.77;;
63346;SDS011;49472;49.880;8.650;2022-11-13T09:37:14;20.00;;;18.50;;
63346;SDS011;49472;49.880;8.650;2022-11-13T09:39:40;22.10;;;20.10;;
63346;SDS011;49472;49.880;8.650;2022-11-13T09:42:13;22.93;;;20.53;;
63346;SDS011;49472;49.880;8.650;2022-11-13T09:44:46;22.83;;;20.70;;
63346;SDS011;49472;49.880;8.650;2022-11-13T09:47:18;21.40;;;19.63;;
63346;SDS011;49472;49.880;8.650;2022-11-13T09:49:51;20.83;;;19.33;;
63346;SDS011;49472;49.880;8.650;2022-11-13T09:52:35;20.80;;;19.10;;
63346;SDS011;49472;49.880;8.650;2022-11-13T09:55:02;19.87;;;18.47;;
63346;SDS011;49472;49.880;8.650;2022-11-13T10:05:35;19.20;;;17.90;;
63346;SDS011;49472;49.880;8.650;2022-11-13T10:14:20;20.07;;;18.57;;
63346;SDS011;49472;49.880;8.650;2022-11-13T10:19:41;19.80;;;18.30;;
63346;SDS011;49472;49.880;8.650;2022-11-13T10:22:16;20.20;;;18.80;;
63346;SDS011;49472;49.880;8.650;2022-11-13T10:24:48;19.70;;;18.30;;
63346;SDS011;49472;49.880;8.650;2022-11-13T10:27:16;21.70;;;19.90;;
63346;SDS011;49472;49.880;8.650;2022-11-13T10:29:41;22.13;;;20.00;;
63346;SDS011;49472;49.880;8.650;2022-11-13T10:32:18;20.90;;;19.30;;
63346;SDS011;49472;49.880;8.650;2022-11-13T10:34:52;20.80;;;19.30;;
63346;SDS011;49472;49.880;8.650;2022-11-13T10:40:26;22.23;;;20.33;;
63346;SDS011;49472;49.880;8.650;2022-11-13T10:42:53;21.43;;;19.80;;
63346;SDS011;49472;49.880;8.650;2022-11-13T10:45:28;21.10;;;19.50;;
63346;SDS011;49472;49.880;8.650;2022-11-13T10:47:53;22.03;;;20.33;;
63346;SDS011;49472;49.880;8.650;2022-11-13T10:50:20;22.20;;;20.40;;
63346;SDS011;49472;49.880;8.650;2022-11-13T10:52:54;21.23;;;19.63;;
63346;SDS011;49472;49.880;8.650;2022-11-13T10:55:34;21.50;;;19.80;;
63346;SDS011;49472;49.880;8.650;2022-11-13T10:58:13;21.47;;;19.73;;
63346;SDS011;49472;49.880;8.650;2022-11-13T11:00:41;23.10;;;21.27;;
63346;SDS011;49472;49.880;8.650;2022-11-13T11:05:55;22.57;;;20.43;;
63346;SDS011;49472;49.880;8.650;2022-11-13T11:08:44;21.97;;;20.17;;
63346;SDS011;49472;49.880;8.650;2022-11-13T11:11:13;21.67;;;19.50;;
63346;SDS011;49472;49.880;8.650;2022-11-13T11:17:02;20.27;;;18.80;;
63346;SDS011;49472;49.880;8.650;2022-11-13T11:19:29;19.13;;;17.23;;
63346;SDS011;49472;49.880;8.650;2022-11-13T11:22:05;19.37;;;17.50;;
63346;SDS011;49472;49.880;8.650;2022-11-13T11:24:41;19.80;;;18.20;;
63346;SDS011;49472;49.880;8.650;2022-11-13T11:27:16;19.63;;;17.90;;
63346;SDS011;49472;49.880;8.650;2022-11-13T11:29:55;17.80;;;16.50;;
63346;SDS011;49472;49.880;8.650;2022-11-13T11:32:24;18.80;;;17.40;;
63346;SDS011;49472;49.880;8.650;2022-11-13T11:34:57;17.63;;;16.33;;
63346;SDS011;49472;49.880;8.650;2022-11-13T11:37:35;17.63;;;16.33;;
63346;SDS011;49472;49.880;8.650;2022-11-13T11:43:00;19.23;;;16.23;;
63346;SDS011;49472;49.880;8.650;2022-11-13T11:45:41;16.57;;;15.37;;
63346;SDS011;49472;49.880;8.650;2022-11-13T11:48:12;17.03;;;15.80;;
63346;SDS011;49472;49.880;8.650;2022-11-13T11:59:14;16.40;;;15.40;;
63346;SDS011;49472;49.880;8.650;2022-11-13T12:23:39;16.70;;;15.70;;
63346;SDS011;49472;49.880;8.650;2022-11-13T12:28:48;17.80;;;16.30;;
63346;SDS011;49472;49.880;8.650;2022-11-13T12:31:31;17.67;;;16.33;;
63346;SDS011;49472;49.880;8.650;2022-11-13T12:34:28;17.43;;;16.13;;
63346;SDS011;49472;49.880;8.650;2022-11-13T12:36:59;16.43;;;15.33;;
63346;SDS011;49472;49.880;8.650;2022-11-13T12:44:50;16.80;;;15.70;;
63346;SDS011;49472;49.880;8.650;2022-11-13T12:47:23;16.40;;;15.10;;
63346;SDS011;49472;49.880;8.650;2022-11-13T12:49:57;17.90;;;16.60;;
63346;SDS011;49472;49.880;8.650;2022-11-13T12:52:26;19.30;;;17.80;;
63346;SDS011;49472;49.880;8.650;2022-11-13T12:55:01;18.02;;;16.27;;
63346;SDS011;49472;49.880;8.650;2022-11-13T12:57:28;16.45;;;15.30;;
63346;SDS011;49472;49.880;8.650;2022-11-13T12:59:57;16.95;;;15.65;;
63346;SDS011;49472;49.880;8.650;2022-11-13T13:08:43;16.17;;;14.75;;
63346;SDS011;49472;49.880;8.650;2022-11-13T13:11:25;15.95;;;14.95;;
63346;SDS011;49472;49.880;8.650;2022-11-13T13:16:40;18.15;;;16.90;;
63346;SDS011;49472;49.880;8.650;2022-11-13T13:19:06;16.80;;;15.60;;
63346;SDS011;49472;49.880;8.650;2022-11-13T13:21:42;16.60;;;15.23;;
63346;SDS011;49472;49.880;8.650;2022-11-13T13:24:21;17.20;;;15.88;;
63346;SDS011;49472;49.880;8.650;2022-11-13T13:26:51;15.73;;;14.63;;
63346;SDS011;49472;49.880;8.650;2022-11-13T13:29:18;16.35;;;15.15;;
63346;SDS011;49472;49.880;8.650;2022-11-13T13:31:57;16.63;;;15.43;;
63346;SDS011;49472;49.880;8.650;2022-11-13T13:34:54;15.40;;;14.32;;
63346;SDS011;49472;49.880;8.650;2022-11-13T13:37:28;15.65;;;14.25;;
63346;SDS011;49472;49.880;8.650;2022-11-13T13:43:06;15.32;;;14.27;;
63346;SDS011;49472;49.880;8.650;2022-11-13T13:45:46;15.73;;;14.63;;
63346;SDS011;49472;49.880;8.650;2022-11-13T13:48:15;15.40;;;14.40;;
63346;SDS011;49472;49.880;8.650;2022-11-13T13:50:44;14.95;;;14.02;;
63346;SDS011;49472;49.880;8.650;2022-11-13T13:53:11;14.02;;;13.13;;
63346;SDS011;49472;49.880;8.650;2022-11-13T13:55:51;14.75;;;13.80;;
63346;SDS011;49472;49.880;8.650;2022-11-13T13:58:20;14.98;;;14.05;;
63346;SDS011;49472;49.880;8.650;2022-11-13T14:00:57;15.50;;;14.40;;
63346;SDS011;49472;49.880;8.650;2022-11-13T14:03:24;15.40;;;14.35;;
63346;SDS011;49472;49.880;8.650;2022-11-13T14:05:52;16.92;;;15.70;;
63346;SDS011;49472;49.880;8.650;2022-11-13T14:08:22;15.45;;;14.35;;
63346;SDS011;49472;49.880;8.650;2022-11-13T14:10:49;15.00;;;14.00;;
63346;SDS011;49472;49.880;8.650;2022-11-13T14:13:25;15.95;;;14.85;;
63346;SDS011;49472;49.880;8.650;2022-11-13T14:16:01;19.83;;;15.17;;
63346;SDS011;49472;49.880;8.650;2022-11-13T14:18:29;17.20;;;15.80;;
63346;SDS011;49472;49.880;8.650;2022-11-13T14:20:55;15.67;;;14.67;;
63346;SDS011;49472;49.880;8.650;2022-11-13T14:23:24;16.23;;;15.13;;
63346;SDS011;49472;49.880;8.650;2022-11-13T14:25:56;16.37;;;15.20;;
63346;SDS011;49472;49.880;8.650;2022-11-13T14:28:24;17.17;;;15.87;;
63346;SDS011;49472;49.880;8.650;2022-11-13T14:30:56;16.97;;;15.60;;
63346;SDS011;49472;49.880;8.650;2022-11-13T14:33:30;18.57;;;17.00;;
63346;SDS011;49472;49.880;8.650;2022-11-13T14:35:58;18.10;;;16.70;;
63346;SDS011;49472;49.880;8.650;2022-11-13T14:38:27;15.83;;;14.73;;
63346;SDS011;49472;49.880;8.650;2022-11-13T14:40:57;16.30;;;15.20;;
63346;SDS011;49472;49.880;8.650;2022-11-13T14:43:24;17.57;;;15.97;;
63346;SDS011;49472;49.880;8.650;2022-11-13T14:45:54;15.90;;;14.90;;
63346;SDS011;49472;49.880;8.650;2022-11-13T14:48:29;16.53;;;15.33;;
63346;SDS011;49472;49.880;8.650;2022-11-13T14:50:56;17.00;;;15.70;;
63346;SDS011;49472;49.880;8.650;2022-11-13T14:53:42;16.73;;;15.53;;
63346;SDS011;49472;49.880;8.650;2022-11-13T14:56:10;17.03;;;15.73;;
63346;SDS011;49472;49.880;8.650;2022-11-13T14:58:43;17.10;;;15.90;;
63346;SDS011;49472;49.880;8.650;2022-11-13T15:03:41;16.80;;;15.63;;
63346;SDS011;49472;49.880;8.650;2022-11-13T15:06:11;18.13;;;16.73;;
63346;SDS011;49472;49.880;8.650;2022-11-13T15:08:37;18.70;;;17.30;;
63346;SDS011;49472;49.880;8.650;2022-11-13T15:11:03;17.70;;;16.20;;
63346;SDS011;49472;49.880;8.650;2022-11-13T15:13:28;20.17;;;18.47;;
63346;SDS011;49472;49.880;8.650;2022-11-13T15:15:54;20.30;;;18.30;;
63346;SDS011;49472;49.880;8.650;2022-11-13T15:18:19;21.73;;;19.63;;
63346;SDS011;49472;49.880;8.650;2022-11-13T15:20:44;20.23;;;18.60;;
63346;SDS011;49472;49.880;8.650;2022-11-13T15:23:11;21.50;;;19.20;;
63346;SDS011;49472;49.880;8.650;2022-11-13T15:25:39;24.23;;;21.60;;
63346;SDS011;49472;49.880;8.650;2022-11-13T15:28:04;24.33;;;21.97;;
63346;SDS011;49472;49.880;8.650;2022-11-13T15:30:30;20.80;;;19.03;;
63346;SDS011;49472;49.880;8.650;2022-11-13T15:32:56;20.50;;;18.50;;
63346;SDS011;49472;49.880;8.650;2022-11-13T15:35:23;22.10;;;20.23;;
63346;SDS011;49472;49.880;8.650;2022-11-13T15:37:48;19.10;;;17.50;;
63346;SDS011;49472;49.880;8.650;2022-11-13T15:40:14;20.60;;;18.60;;
63346;SDS011;49472;49.880;8.650;2022-11-13T15:42:40;21.37;;;19.30;;
63346;SDS011;49472;49.880;8.650;2022-11-13T15:45:08;20.07;;;18.33;;
63346;SDS011;49472;49.880;8.650;2022-11-13T15:47:38;20.10;;;18.30;;
63346;SDS011;49472;49.880;8.650;2022-11-13T15:50:04;19.80;;;18.13;;
63346;SDS011;49472;49.880;8.650;2022-11-13T15:52:31;20.20;;;18.30;;